createdAt,value
2024-02-19T00:00:15.422Z,3.38
2024-02-19T00:02:45.422Z,3.46
2024-02-19T00:05:14.181Z,3.56
2024-02-19T00:07:43.260Z,3.62
2024-02-19T00:10:13.190Z,3.67
2024-02-19T00:12:41.765Z,3.64
2024-02-19T00:15:12.822Z,3.57
2024-02-19T00:17:41.522Z,3.59
2024-02-19T00:20:11.429Z,3.48
2024-02-19T00:22:40.722Z,3.45
2024-02-19T00:25:10.412Z,3.44
2024-02-19T00:27:43.584Z,3.49
2024-02-19T00:30:13.562Z,3.53
2024-02-19T00:32:42.406Z,3.58
2024-02-19T00:35:11.089Z,3.63
2024-02-19T00:37:39.798Z,3.69
2024-02-19T00:40:09.887Z,3.75
2024-02-19T00:42:38.546Z,3.74
2024-02-19T00:45:09.554Z,3.78
2024-02-19T00:47:38.777Z,3.81
2024-02-19T00:50:08.303Z,3.88
2024-02-19T00:52:37.491Z,3.91
2024-02-19T00:55:06.574Z,3.90
2024-02-19T00:57:34.927Z,3.89
2024-02-19T01:00:05.360Z,3.89
2024-02-19T01:02:36.119Z,3.89
2024-02-19T01:05:05.649Z,3.85
2024-02-19T01:07:34.584Z,3.85
2024-02-19T01:10:03.354Z,3.82
2024-02-19T01:12:32.267Z,3.86
2024-02-19T01:15:00.921Z,3.89
2024-02-19T01:17:30.466Z,3.90
2024-02-19T01:20:01.272Z,3.98
2024-02-19T01:22:29.749Z,4.02
2024-02-19T01:24:59.012Z,4.05
2024-02-19T01:27:27.417Z,4.10
2024-02-19T01:29:55.696Z,4.09
2024-02-19T01:32:24.461Z,4.13
2024-02-19T01:34:53.585Z,4.19
2024-02-19T01:37:23.674Z,4.19
2024-02-19T01:39:52.578Z,4.19
2024-02-19T01:42:21.079Z,4.21
2024-02-19T01:44:49.883Z,4.31
2024-02-19T01:47:19.395Z,4.71
2024-02-19T01:49:48.312Z,4.90
2024-02-19T01:52:16.940Z,5.45
2024-02-19T01:54:46.772Z,5.64
2024-02-19T01:57:15.534Z,5.78
2024-02-19T01:59:44.866Z,6.04
2024-02-19T02:02:15.186Z,6.18
2024-02-19T02:04:43.999Z,6.52
2024-02-19T02:07:13.171Z,6.69
2024-02-19T02:09:41.818Z,6.71
2024-02-19T02:12:13.135Z,6.90
2024-02-19T02:14:42.122Z,7.01
2024-02-19T02:17:10.482Z,6.98
2024-02-19T02:19:42.769Z,7.02
2024-02-19T02:22:12.998Z,7.00
2024-02-19T02:24:41.533Z,6.93
2024-02-19T02:27:11.454Z,7.15
2024-02-19T02:29:40.437Z,7.08
2024-02-19T02:32:09.505Z,7.05
2024-02-19T02:34:38.141Z,7.05
2024-02-19T02:37:06.890Z,6.96
2024-02-19T02:39:35.360Z,7.04
2024-02-19T02:42:05.644Z,6.98
2024-02-19T02:44:36.004Z,6.98
2024-02-19T02:47:05.385Z,7.11
2024-02-19T02:49:33.993Z,7.07
2024-02-19T02:52:02.535Z,7.17
2024-02-19T02:54:31.161Z,7.21
2024-02-19T02:57:00.190Z,7.26
2024-02-19T02:59:28.741Z,7.26
2024-02-19T03:02:00.162Z,7.29
2024-02-19T03:04:29.231Z,7.41
2024-02-19T03:06:58.147Z,7.09
2024-02-19T03:09:26.474Z,7.32
2024-02-19T03:11:54.774Z,7.28
2024-02-19T03:14:24.363Z,7.27
2024-02-19T03:16:52.799Z,7.22
2024-02-19T03:19:22.650Z,7.20
2024-02-19T03:21:52.219Z,7.21
2024-02-19T03:24:21.941Z,7.13
2024-02-19T03:26:50.540Z,7.15
2024-02-19T03:29:19.424Z,7.12
2024-02-19T03:31:48.377Z,7.11
2024-02-19T03:34:16.837Z,7.17
2024-02-19T03:36:52.932Z,7.12
2024-02-19T03:39:21.711Z,7.02
2024-02-19T03:41:53.088Z,7.00
2024-02-19T03:44:21.471Z,7.00
2024-02-19T03:46:50.392Z,7.00
2024-02-19T03:49:19.317Z,7.02
2024-02-19T03:51:49.566Z,6.96
2024-02-19T03:54:17.918Z,6.95
2024-02-19T03:56:46.206Z,6.94
2024-02-19T03:59:14.546Z,6.95
2024-02-19T04:01:42.975Z,6.88
2024-02-19T04:04:11.510Z,6.95
2024-02-19T04:06:39.959Z,7.00
2024-02-19T04:09:10.794Z,6.97
2024-02-19T04:11:39.749Z,7.00
2024-02-19T04:14:08.306Z,7.00
2024-02-19T04:16:36.880Z,6.94
2024-02-19T04:19:05.172Z,6.93
2024-02-19T04:21:32.496Z,6.93
2024-02-19T04:24:01.111Z,6.88
2024-02-19T04:26:30.886Z,6.88
2024-02-19T04:28:59.917Z,6.98
2024-02-19T04:31:28.665Z,6.95
2024-02-19T04:33:57.023Z,6.94
2024-02-19T04:36:25.717Z,6.88
2024-02-19T04:38:53.821Z,6.88
2024-02-19T04:41:22.084Z,6.89
2024-02-19T04:43:51.899Z,6.90
2024-02-19T04:46:21.049Z,6.93
2024-02-19T04:48:49.608Z,6.91
2024-02-19T04:51:18.095Z,6.91
2024-02-19T04:53:46.694Z,6.88
2024-02-19T04:56:17.094Z,6.98
2024-02-19T04:58:45.460Z,6.98
2024-02-19T05:01:15.311Z,6.94
2024-02-19T05:03:43.759Z,6.95
2024-02-19T05:06:12.233Z,6.83
2024-02-19T05:08:40.614Z,6.85
2024-02-19T05:11:09.274Z,6.82
2024-02-19T05:13:37.863Z,6.90
2024-02-19T05:16:07.840Z,6.86
2024-02-19T05:18:38.455Z,6.76
2024-02-19T05:21:07.591Z,6.87
2024-02-19T05:23:36.276Z,6.78
2024-02-19T05:26:09.449Z,6.86
2024-02-19T05:28:43.000Z,6.76
2024-02-19T05:31:11.304Z,6.83
2024-02-19T05:33:41.061Z,6.81
2024-02-19T05:36:12.094Z,6.81
2024-02-19T05:38:40.399Z,6.76
2024-02-19T05:41:08.625Z,6.78
2024-02-19T05:43:36.816Z,6.77
2024-02-19T05:46:05.362Z,6.77
2024-02-19T05:48:35.256Z,6.80
2024-02-19T05:51:05.765Z,6.80
2024-02-19T05:53:35.420Z,6.78
2024-02-19T05:56:04.838Z,6.87
2024-02-19T05:58:40.974Z,6.89
2024-02-19T06:01:09.680Z,6.97
2024-02-19T06:03:39.024Z,6.93
2024-02-19T06:06:09.075Z,6.91
2024-02-19T06:08:37.573Z,6.98
2024-02-19T06:11:06.258Z,6.95
2024-02-19T06:13:34.921Z,7.00
2024-02-19T06:16:03.339Z,6.93
2024-02-19T06:18:31.787Z,6.91
2024-02-19T06:21:00.370Z,6.99
2024-02-19T06:23:31.425Z,7.00
2024-02-19T06:26:00.718Z,7.05
2024-02-19T06:28:29.819Z,7.07
2024-02-19T06:30:58.634Z,7.08
2024-02-19T06:33:27.112Z,7.11
2024-02-19T06:35:57.545Z,7.06
2024-02-19T06:38:25.809Z,7.14
2024-02-19T06:40:57.557Z,7.11
2024-02-19T06:43:26.929Z,7.12
2024-02-19T06:45:55.226Z,7.14
2024-02-19T06:48:23.696Z,7.17
2024-02-19T06:50:52.280Z,7.20
2024-02-19T06:53:21.036Z,7.28
2024-02-19T06:55:49.941Z,7.27
2024-02-19T06:58:20.221Z,7.26
2024-02-19T07:00:48.717Z,7.31
2024-02-19T07:03:17.430Z,7.41
2024-02-19T07:05:45.955Z,7.43
2024-02-19T07:08:15.845Z,7.37
2024-02-19T07:10:44.535Z,7.37
2024-02-19T07:13:13.201Z,7.28
2024-02-19T07:15:42.854Z,7.24
2024-02-19T07:18:13.098Z,7.24
2024-02-19T07:20:42.382Z,7.24
2024-02-19T07:23:11.122Z,7.27
2024-02-19T07:25:39.644Z,7.33
2024-02-19T07:28:08.611Z,7.45
2024-02-19T07:30:38.790Z,7.39
2024-02-19T07:33:09.442Z,7.47
2024-02-19T07:35:38.088Z,7.41
2024-02-19T07:38:06.639Z,7.36
2024-02-19T07:40:35.999Z,7.38
2024-02-19T07:43:05.227Z,7.37
2024-02-19T07:45:33.643Z,7.35
2024-02-19T07:48:02.630Z,7.29
2024-02-19T07:50:34.368Z,7.41
2024-02-19T07:53:06.214Z,7.31
2024-02-19T07:55:34.656Z,7.33
2024-02-19T07:58:03.122Z,7.37
2024-02-19T08:00:31.268Z,7.52
2024-02-19T08:02:59.506Z,7.50
2024-02-19T08:05:28.112Z,7.51
2024-02-19T08:07:57.719Z,7.51
2024-02-19T08:10:26.288Z,7.66
2024-02-19T08:12:54.877Z,7.67
2024-02-19T08:15:23.863Z,7.68
2024-02-19T08:17:52.212Z,7.72
2024-02-19T08:20:21.016Z,7.76
2024-02-19T08:22:49.554Z,7.74
2024-02-19T08:25:19.314Z,7.64
2024-02-19T08:27:47.895Z,7.66
2024-02-19T08:30:17.001Z,7.62
2024-02-19T08:32:45.533Z,7.53
2024-02-19T08:35:14.150Z,7.48
2024-02-19T08:37:42.594Z,7.48
2024-02-19T08:40:12.218Z,7.42
2024-02-19T08:42:41.929Z,7.41
2024-02-19T08:45:10.911Z,7.49
2024-02-19T08:47:39.302Z,7.44
2024-02-19T08:50:09.796Z,7.41
2024-02-19T08:52:38.241Z,7.36
2024-02-19T08:55:07.208Z,7.37
2024-02-19T08:57:35.775Z,7.40
2024-02-19T09:00:07.290Z,7.37
2024-02-19T09:02:43.645Z,7.36
2024-02-19T09:05:12.253Z,7.45
2024-02-19T09:07:41.107Z,7.48
2024-02-19T09:10:10.517Z,7.51
2024-02-19T09:12:38.780Z,7.59
2024-02-19T09:15:09.620Z,7.63
2024-02-19T09:17:38.028Z,7.72
2024-02-19T09:20:08.195Z,7.70
2024-02-19T09:22:36.657Z,7.71
2024-02-19T09:25:05.997Z,7.71
2024-02-19T09:27:42.428Z,7.82
2024-02-19T09:30:13.890Z,7.84
2024-02-19T09:32:42.279Z,7.88
2024-02-19T09:35:11.152Z,8.00
2024-02-19T09:37:39.750Z,8.02
2024-02-19T09:40:10.141Z,8.08
2024-02-19T09:42:39.163Z,8.13
2024-02-19T09:45:08.439Z,8.15
2024-02-19T09:47:41.261Z,8.16
2024-02-19T09:50:12.873Z,8.11
2024-02-19T09:52:42.279Z,8.04
2024-02-19T09:55:11.472Z,7.99
2024-02-19T09:57:40.755Z,7.97
2024-02-19T10:00:11.077Z,7.95
2024-02-19T10:02:41.136Z,7.92
2024-02-19T10:05:13.277Z,7.93
2024-02-19T10:07:43.206Z,7.97
2024-02-19T10:10:13.732Z,8.00
2024-02-19T10:12:42.700Z,8.07
2024-02-19T10:15:11.817Z,8.09
2024-02-19T10:17:41.840Z,8.02
2024-02-19T10:20:14.751Z,7.96
2024-02-19T10:22:43.428Z,8.02
2024-02-19T10:25:13.674Z,8.19
2024-02-19T10:27:42.331Z,8.23
2024-02-19T10:30:14.725Z,8.24
2024-02-19T10:32:47.551Z,8.37
2024-02-19T10:35:17.306Z,8.47
2024-02-19T10:37:47.694Z,8.49
2024-02-19T10:40:18.723Z,8.45
2024-02-19T10:42:48.923Z,8.40
2024-02-19T10:45:19.167Z,8.43
2024-02-19T10:47:49.662Z,8.50
2024-02-19T10:50:19.571Z,8.52
2024-02-19T10:52:48.686Z,8.51
2024-02-19T10:55:22.683Z,8.54
2024-02-19T10:57:58.039Z,8.72
2024-02-19T11:00:27.648Z,8.77
2024-02-19T11:03:15.775Z,9.57
2024-02-19T11:05:45.923Z,9.44
2024-02-19T11:08:21.690Z,9.41
2024-02-19T11:10:51.361Z,9.37
2024-02-19T11:13:22.311Z,9.34
2024-02-19T11:15:50.793Z,9.48
2024-02-19T11:18:21.963Z,9.43
2024-02-19T11:20:50.982Z,9.84
2024-02-19T11:23:20.441Z,10.09
2024-02-19T11:25:49.256Z,9.95
2024-02-19T11:28:17.738Z,9.72
2024-02-19T11:30:49.814Z,9.72
2024-02-19T11:33:18.359Z,9.78
2024-02-19T11:35:48.570Z,9.77
2024-02-19T11:38:17.489Z,9.47
2024-02-19T11:40:45.646Z,9.46
2024-02-19T11:43:17.614Z,9.37
2024-02-19T11:45:48.186Z,9.22
2024-02-19T11:48:17.782Z,9.27
2024-02-19T11:50:48.371Z,9.47
2024-02-19T11:53:16.847Z,9.53
2024-02-19T11:55:45.386Z,9.56
2024-02-19T11:58:13.843Z,9.66
2024-02-19T12:00:42.864Z,9.87
2024-02-19T12:03:15.589Z,9.84
2024-02-19T12:05:44.136Z,9.69
2024-02-19T12:08:14.116Z,9.43
2024-02-19T12:10:42.559Z,9.26
2024-02-19T12:13:10.772Z,8.96
2024-02-19T12:15:39.764Z,8.89
2024-02-19T12:18:08.271Z,8.90
2024-02-19T12:20:36.707Z,8.88
2024-02-19T12:23:06.364Z,8.95
2024-02-19T12:25:36.358Z,8.94
2024-02-19T12:28:05.085Z,9.01
2024-02-19T12:30:34.353Z,9.18
2024-02-19T12:33:03.071Z,9.18
2024-02-19T12:35:31.516Z,9.18
2024-02-19T12:38:00.253Z,9.01
2024-02-19T12:40:29.357Z,8.90
2024-02-19T12:43:00.559Z,8.78
2024-02-19T12:45:29.351Z,8.68
2024-02-19T12:47:57.843Z,8.58
2024-02-19T12:50:26.659Z,8.54
2024-02-19T12:52:55.437Z,8.48
2024-02-19T12:55:24.518Z,8.50
2024-02-19T12:57:52.896Z,8.57
2024-02-19T13:00:30.734Z,8.67
2024-02-19T13:02:59.402Z,8.70
2024-02-19T13:05:29.049Z,8.52
2024-02-19T13:07:57.479Z,8.68
2024-02-19T13:10:26.089Z,8.94
2024-02-19T13:12:54.398Z,9.40
2024-02-19T13:15:24.301Z,9.40
2024-02-19T13:17:53.127Z,9.48
2024-02-19T13:20:23.609Z,10.17
2024-02-19T13:22:52.102Z,10.82
2024-02-19T13:25:20.781Z,10.79
2024-02-19T13:27:49.711Z,10.32
2024-02-19T13:30:19.199Z,10.41
2024-02-19T13:32:50.081Z,11.66
2024-02-19T13:35:19.682Z,11.05
2024-02-19T13:37:48.495Z,10.93
2024-02-19T13:40:17.180Z,10.77
2024-02-19T13:42:45.838Z,10.51
2024-02-19T13:45:14.826Z,10.32
2024-02-19T13:47:45.586Z,10.26
2024-02-19T13:50:15.990Z,10.37
2024-02-19T13:52:45.193Z,10.30
2024-02-19T13:55:15.791Z,10.29
2024-02-19T13:57:45.068Z,10.30
2024-02-19T14:00:14.368Z,10.40
2024-02-19T14:02:43.359Z,10.49
2024-02-19T14:05:11.880Z,11.51
2024-02-19T14:07:41.881Z,12.47
2024-02-19T14:10:10.709Z,12.95
2024-02-19T14:12:38.981Z,13.09
2024-02-19T14:15:08.631Z,13.29
2024-02-19T14:17:37.342Z,12.58
2024-02-19T14:20:07.232Z,12.25
2024-02-19T14:22:36.583Z,12.38
2024-02-19T14:25:09.964Z,12.17
2024-02-19T14:27:39.908Z,11.87
2024-02-19T14:30:11.690Z,12.62
2024-02-19T14:32:40.910Z,14.22
2024-02-19T14:35:12.026Z,15.00
2024-02-19T14:37:41.577Z,15.76
2024-02-19T14:40:15.273Z,15.97
2024-02-19T14:42:45.275Z,13.95
2024-02-19T14:45:14.405Z,12.78
2024-02-19T14:47:44.545Z,12.06
2024-02-19T14:50:13.726Z,11.80
2024-02-19T14:52:43.181Z,11.60
2024-02-19T14:55:16.238Z,11.72
2024-02-19T14:57:47.389Z,11.08
2024-02-19T15:00:22.404Z,10.52
2024-02-19T15:02:52.206Z,10.12
2024-02-19T15:05:21.689Z,10.02
2024-02-19T15:07:55.832Z,9.50
2024-02-19T15:10:28.865Z,9.65
2024-02-19T15:12:59.016Z,9.77
2024-02-19T15:15:27.880Z,10.06
2024-02-19T15:17:57.777Z,10.30
2024-02-19T15:20:26.776Z,9.93
2024-02-19T15:22:56.660Z,9.35
2024-02-19T15:25:30.186Z,9.28
2024-02-19T15:28:01.419Z,9.10
2024-02-19T15:30:33.307Z,9.01
2024-02-19T15:33:03.210Z,8.91
2024-02-19T15:35:32.274Z,8.87
2024-02-19T15:38:00.641Z,8.78
2024-02-19T15:40:30.723Z,8.69
2024-02-19T15:42:59.189Z,8.53
2024-02-19T15:45:27.464Z,8.45
2024-02-19T15:47:56.271Z,8.33
2024-02-19T15:50:24.930Z,8.23
2024-02-19T15:52:58.950Z,8.16
2024-02-19T15:55:38.738Z,8.08
2024-02-19T15:58:07.399Z,8.06
2024-02-19T16:00:39.809Z,8.12
2024-02-19T16:03:09.184Z,7.98
2024-02-19T16:05:38.219Z,7.92
2024-02-19T16:08:39.224Z,7.77
2024-02-19T16:11:09.647Z,7.75
2024-02-19T16:13:39.317Z,7.64
2024-02-19T16:16:11.067Z,7.56
2024-02-19T16:18:40.480Z,7.50
2024-02-19T16:21:08.892Z,7.47
2024-02-19T16:23:38.405Z,7.45
2024-02-19T16:26:11.244Z,7.49
2024-02-19T16:28:42.137Z,7.39
2024-02-19T16:31:12.406Z,7.28
2024-02-19T16:33:42.772Z,7.32
2024-02-19T16:36:11.460Z,7.40
2024-02-19T16:38:42.109Z,7.39
2024-02-19T16:41:11.844Z,7.36
2024-02-19T16:43:40.119Z,7.38
2024-02-19T16:46:08.856Z,7.33
2024-02-19T16:48:40.273Z,7.24
2024-02-19T16:51:09.276Z,7.22
2024-02-19T16:53:38.215Z,7.03
2024-02-19T16:56:07.832Z,6.99
2024-02-19T16:58:40.844Z,6.91
2024-02-19T17:01:11.405Z,6.90
2024-02-19T17:03:41.297Z,6.95
2024-02-19T17:06:10.210Z,6.86
2024-02-19T17:08:38.686Z,6.83
2024-02-19T17:11:07.264Z,6.73
2024-02-19T17:13:37.655Z,6.71
2024-02-19T17:16:09.514Z,6.59
2024-02-19T17:18:38.360Z,6.53
2024-02-19T17:21:10.343Z,6.46
2024-02-19T17:23:43.119Z,6.32
2024-02-19T17:26:11.483Z,6.30
2024-02-19T17:28:40.038Z,6.17
2024-02-19T17:31:10.118Z,6.18
2024-02-19T17:33:39.074Z,6.18
2024-02-19T17:36:08.037Z,6.18
2024-02-19T17:38:36.795Z,6.15
2024-02-19T17:41:07.850Z,6.19
2024-02-19T17:43:36.706Z,6.19
2024-02-19T17:46:06.181Z,6.20
2024-02-19T17:48:38.387Z,6.22
2024-02-19T17:51:07.356Z,6.16
2024-02-19T17:53:36.111Z,6.27
2024-02-19T17:56:05.311Z,6.12
2024-02-19T17:58:33.827Z,6.29
2024-02-19T18:01:02.722Z,6.28
2024-02-19T18:03:31.386Z,6.32
2024-02-19T18:06:01.834Z,6.21
2024-02-19T18:08:30.241Z,6.22
2024-02-19T18:11:00.371Z,6.21
2024-02-19T18:13:28.982Z,6.18
2024-02-19T18:15:57.284Z,6.12
2024-02-19T18:18:26.047Z,6.03
2024-02-19T18:20:55.539Z,5.96
2024-02-19T18:23:28.078Z,5.92
2024-02-19T18:25:56.738Z,5.92
2024-02-19T18:28:26.023Z,5.90
2024-02-19T18:30:55.334Z,5.90
2024-02-19T18:33:26.750Z,5.90
2024-02-19T18:35:55.107Z,5.88
2024-02-19T18:38:25.197Z,5.87
2024-02-19T18:40:54.505Z,5.83
2024-02-19T18:43:24.427Z,5.76
2024-02-19T18:45:52.981Z,5.76
2024-02-19T18:48:24.797Z,5.77
2024-02-19T18:50:53.351Z,5.78
2024-02-19T18:53:21.915Z,5.67
2024-02-19T18:56:02.745Z,5.60
2024-02-19T18:58:31.791Z,5.59
2024-02-19T19:01:01.540Z,5.58
2024-02-19T19:03:30.240Z,5.57
2024-02-19T19:06:04.668Z,5.58
2024-02-19T19:08:33.594Z,5.60
2024-02-19T19:11:04.610Z,5.60
2024-02-19T19:13:35.024Z,5.60
2024-02-19T19:16:07.051Z,5.62
2024-02-19T19:18:36.017Z,5.61
2024-02-19T19:21:06.495Z,5.61
2024-02-19T19:23:34.658Z,5.58
2024-02-19T19:26:04.697Z,5.64
2024-02-19T19:28:33.101Z,5.62
2024-02-19T19:31:03.471Z,5.69
2024-02-19T19:33:32.128Z,5.69
2024-02-19T19:36:02.872Z,5.69
2024-02-19T19:38:31.559Z,5.65
2024-02-19T19:40:59.930Z,5.63
2024-02-19T19:43:30.554Z,5.60
2024-02-19T19:45:59.438Z,5.64
2024-02-19T19:48:29.758Z,5.68
2024-02-19T19:50:58.682Z,5.73
2024-02-19T19:53:30.426Z,5.78
2024-02-19T19:55:59.069Z,5.91
2024-02-19T19:58:32.267Z,5.96
2024-02-19T20:01:04.450Z,5.92
2024-02-19T20:03:33.141Z,5.88
2024-02-19T20:06:01.777Z,5.90
2024-02-19T20:08:30.717Z,5.90
2024-02-19T20:11:00.152Z,5.84
2024-02-19T20:13:29.037Z,5.84
2024-02-19T20:15:57.619Z,5.83
2024-02-19T20:18:29.366Z,5.88
2024-02-19T20:20:58.289Z,5.98
2024-02-19T20:23:30.538Z,5.98
2024-02-19T20:25:59.962Z,5.98
2024-02-19T20:28:28.653Z,5.98
2024-02-19T20:30:57.038Z,5.97
2024-02-19T20:33:27.086Z,5.98
2024-02-19T20:35:57.865Z,5.96
2024-02-19T20:38:26.727Z,5.87
2024-02-19T20:40:55.454Z,5.76
2024-02-19T20:43:24.000Z,5.76
2024-02-19T20:45:52.246Z,5.80
2024-02-19T20:48:20.898Z,5.73
2024-02-19T20:50:50.597Z,5.72
2024-02-19T20:53:19.449Z,5.71
2024-02-19T20:55:47.970Z,5.74
2024-02-19T20:58:16.646Z,5.73
2024-02-19T21:00:45.273Z,5.74
2024-02-19T21:03:16.343Z,5.77
2024-02-19T21:05:44.899Z,5.80
2024-02-19T21:08:15.258Z,5.82
2024-02-19T21:10:44.292Z,5.90
2024-02-19T21:13:13.183Z,5.89
2024-02-19T21:15:41.621Z,5.87
2024-02-19T21:18:11.550Z,5.88
2024-02-19T21:20:40.378Z,5.91
2024-02-19T21:23:08.908Z,5.91
2024-02-19T21:25:39.084Z,5.93
2024-02-19T21:28:09.138Z,5.88
2024-02-19T21:30:37.294Z,5.89
2024-02-19T21:33:06.744Z,5.90
2024-02-19T21:35:35.506Z,5.95
2024-02-19T21:38:04.055Z,5.99
2024-02-19T21:40:32.410Z,5.97
2024-02-19T21:43:02.390Z,5.97
2024-02-19T21:45:30.668Z,5.97
2024-02-19T21:47:59.489Z,5.98
2024-02-19T21:50:31.457Z,6.05
2024-02-19T21:53:00.807Z,6.13
2024-02-19T21:55:32.046Z,5.86
2024-02-19T21:58:02.143Z,6.14
2024-02-19T22:00:30.670Z,6.16
2024-02-19T22:02:59.274Z,6.13
2024-02-19T22:05:27.980Z,6.14
2024-02-19T22:07:57.983Z,6.10
2024-02-19T22:10:26.260Z,6.05
2024-02-19T22:12:55.058Z,6.10
2024-02-19T22:15:24.937Z,6.13
2024-02-19T22:17:53.370Z,6.09
2024-02-19T22:20:23.094Z,6.06
2024-02-19T22:22:51.393Z,6.08
2024-02-19T22:25:19.726Z,6.11
2024-02-19T22:27:50.624Z,6.16
2024-02-19T22:30:19.879Z,6.18
2024-02-19T22:32:49.716Z,6.12
2024-02-19T22:35:24.443Z,6.07
2024-02-19T22:37:52.990Z,6.10
2024-02-19T22:40:22.229Z,6.11
2024-02-19T22:42:50.606Z,6.09
2024-02-19T22:45:19.167Z,6.03
2024-02-19T22:47:47.565Z,6.07
2024-02-19T22:50:17.855Z,6.03
2024-02-19T22:52:48.782Z,5.96
2024-02-19T22:55:19.871Z,5.94
2024-02-19T22:57:48.498Z,5.94
2024-02-19T23:00:27.465Z,5.99
2024-02-19T23:02:56.128Z,6.01
2024-02-19T23:05:26.166Z,6.01
2024-02-19T23:07:55.991Z,6.01
2024-02-19T23:10:25.045Z,5.99
2024-02-19T23:12:53.359Z,5.71
2024-02-19T23:15:22.957Z,5.99
2024-02-19T23:17:54.467Z,6.00
2024-02-19T23:20:23.646Z,6.02
2024-02-19T23:22:53.897Z,6.03
2024-02-19T23:25:22.642Z,6.06
2024-02-19T23:27:51.217Z,6.11
2024-02-19T23:30:19.944Z,6.09
2024-02-19T23:32:48.483Z,6.10
2024-02-19T23:35:17.050Z,6.19
2024-02-19T23:37:45.478Z,6.16
2024-02-19T23:40:18.545Z,6.15
2024-02-19T23:42:47.607Z,6.19
2024-02-19T23:45:16.670Z,5.84
2024-02-19T23:47:45.668Z,6.12
2024-02-19T23:50:14.370Z,6.11
2024-02-19T23:52:42.789Z,6.09
2024-02-19T23:55:13.938Z,6.10
2024-02-19T23:57:44.031Z,6.13
